sensor_id;sensor_type;location;lat;lon;timestamp;P1;durP1;ratioP1;P2;durP2;ratioP2
5951;SDS011;3001;42.622;23.194;2023-05-29T00:00:50;4.17;;;3.97;;
5951;SDS011;3001;42.622;23.194;2023-05-29T00:03:17;4.83;;;3.70;;
5951;SDS011;3001;42.622;23.194;2023-05-29T00:05:44;4.57;;;4.07;;
5951;SDS011;3001;42.622;23.194;2023-05-29T00:08:10;5.00;;;4.03;;
5951;SDS011;3001;42.622;23.194;2023-05-29T00:10:38;4.63;;;4.43;;
5951;SDS011;3001;42.622;23.194;2023-05-29T00:13:05;4.70;;;4.40;;
5951;SDS011;3001;42.622;23.194;2023-05-29T00:15:32;5.00;;;4.50;;
5951;SDS011;3001;42.622;23.194;2023-05-29T00:17:59;5.10;;;4.70;;
5951;SDS011;3001;42.622;23.194;2023-05-29T00:20:26;4.70;;;4.40;;
5951;SDS011;3001;42.622;23.194;2023-05-29T00:22:53;5.27;;;4.87;;
5951;SDS011;3001;42.622;23.194;2023-05-29T00:25:20;5.37;;;5.07;;
5951;SDS011;3001;42.622;23.194;2023-05-29T00:27:48;7.37;;;5.00;;
5951;SDS011;3001;42.622;23.194;2023-05-29T00:30:15;5.57;;;5.17;;
5951;SDS011;3001;42.622;23.194;2023-05-29T00:32:41;5.20;;;4.80;;
5951;SDS011;3001;42.622;23.194;2023-05-29T00:35:08;5.23;;;4.83;;
5951;SDS011;3001;42.622;23.194;2023-05-29T00:37:35;4.97;;;4.57;;
5951;SDS011;3001;42.622;23.194;2023-05-29T00:40:02;8.80;;;5.30;;
5951;SDS011;3001;42.622;23.194;2023-05-29T00:42:29;6.17;;;5.77;;
5951;SDS011;3001;42.622;23.194;2023-05-29T00:44:57;5.30;;;5.00;;
5951;SDS011;3001;42.622;23.194;2023-05-29T00:47:24;5.40;;;5.10;;
5951;SDS011;3001;42.622;23.194;2023-05-29T00:49:51;6.33;;;5.83;;
5951;SDS011;3001;42.622;23.194;2023-05-29T00:52:18;7.10;;;6.60;;
5951;SDS011;3001;42.622;23.194;2023-05-29T00:54:46;6.87;;;6.27;;
5951;SDS011;3001;42.622;23.194;2023-05-29T00:57:13;6.20;;;5.80;;
5951;SDS011;3001;42.622;23.194;2023-05-29T00:59:42;6.77;;;6.23;;
5951;SDS011;3001;42.622;23.194;2023-05-29T01:02:12;6.60;;;6.17;;
5951;SDS011;3001;42.622;23.194;2023-05-29T01:04:41;6.23;;;5.83;;
5951;SDS011;3001;42.622;23.194;2023-05-29T01:07:08;6.93;;;6.40;;
5951;SDS011;3001;42.622;23.194;2023-05-29T01:09:35;6.17;;;5.57;;
5951;SDS011;3001;42.622;23.194;2023-05-29T01:12:03;6.87;;;6.23;;
5951;SDS011;3001;42.622;23.194;2023-05-29T01:14:45;6.57;;;5.97;;
5951;SDS011;3001;42.622;23.194;2023-05-29T01:17:24;6.10;;;5.60;;
5951;SDS011;3001;42.622;23.194;2023-05-29T01:20:02;6.23;;;5.87;;
5951;SDS011;3001;42.622;23.194;2023-05-29T01:22:49;5.83;;;5.43;;
5951;SDS011;3001;42.622;23.194;2023-05-29T01:28:26;6.53;;;6.13;;
5951;SDS011;3001;42.622;23.194;2023-05-29T01:30:58;6.80;;;6.30;;
5951;SDS011;3001;42.622;23.194;2023-05-29T01:33:27;7.20;;;6.60;;
5951;SDS011;3001;42.622;23.194;2023-05-29T01:35:53;11.63;;;7.33;;
5951;SDS011;3001;42.622;23.194;2023-05-29T01:38:20;7.00;;;6.30;;
5951;SDS011;3001;42.622;23.194;2023-05-29T01:40:47;6.83;;;6.43;;
5951;SDS011;3001;42.622;23.194;2023-05-29T01:43:14;7.67;;;6.80;;
5951;SDS011;3001;42.622;23.194;2023-05-29T01:45:43;7.83;;;7.23;;
5951;SDS011;3001;42.622;23.194;2023-05-29T01:48:10;8.40;;;7.80;;
5951;SDS011;3001;42.622;23.194;2023-05-29T01:50:37;9.17;;;7.80;;
5951;SDS011;3001;42.622;23.194;2023-05-29T01:53:05;8.93;;;8.07;;
5951;SDS011;3001;42.622;23.194;2023-05-29T01:55:31;8.73;;;7.93;;
5951;SDS011;3001;42.622;23.194;2023-05-29T01:57:58;8.90;;;8.10;;
5951;SDS011;3001;42.622;23.194;2023-05-29T02:00:26;9.30;;;8.50;;
5951;SDS011;3001;42.622;23.194;2023-05-29T02:02:54;9.97;;;9.10;;
5951;SDS011;3001;42.622;23.194;2023-05-29T02:05:21;9.67;;;8.80;;
5951;SDS011;3001;42.622;23.194;2023-05-29T02:07:47;10.37;;;9.33;;
5951;SDS011;3001;42.622;23.194;2023-05-29T02:10:14;9.50;;;8.80;;
5951;SDS011;3001;42.622;23.194;2023-05-29T02:12:41;9.97;;;9.30;;
5951;SDS011;3001;42.622;23.194;2023-05-29T02:15:08;9.93;;;8.93;;
5951;SDS011;3001;42.622;23.194;2023-05-29T02:17:36;10.77;;;9.90;;
5951;SDS011;3001;42.622;23.194;2023-05-29T02:20:04;10.93;;;10.00;;
5951;SDS011;3001;42.622;23.194;2023-05-29T02:22:32;10.47;;;9.50;;
5951;SDS011;3001;42.622;23.194;2023-05-29T02:24:59;9.30;;;8.47;;
5951;SDS011;3001;42.622;23.194;2023-05-29T02:27:25;8.57;;;7.87;;
5951;SDS011;3001;42.622;23.194;2023-05-29T02:29:52;8.40;;;7.70;;
5951;SDS011;3001;42.622;23.194;2023-05-29T02:32:19;8.57;;;7.97;;
5951;SDS011;3001;42.622;23.194;2023-05-29T02:34:45;8.57;;;7.97;;
5951;SDS011;3001;42.622;23.194;2023-05-29T02:37:13;8.60;;;7.90;;
5951;SDS011;3001;42.622;23.194;2023-05-29T02:39:40;7.53;;;6.93;;
5951;SDS011;3001;42.622;23.194;2023-05-29T02:42:07;7.90;;;7.40;;
5951;SDS011;3001;42.622;23.194;2023-05-29T02:44:33;8.03;;;7.43;;
5951;SDS011;3001;42.622;23.194;2023-05-29T02:47:00;8.40;;;7.67;;
5951;SDS011;3001;42.622;23.194;2023-05-29T02:49:27;8.57;;;7.20;;
5951;SDS011;3001;42.622;23.194;2023-05-29T02:51:53;7.63;;;6.93;;
5951;SDS011;3001;42.622;23.194;2023-05-29T02:54:23;7.30;;;6.70;;
5951;SDS011;3001;42.622;23.194;2023-05-29T02:56:50;8.00;;;7.23;;
5951;SDS011;3001;42.622;23.194;2023-05-29T02:59:17;7.00;;;6.53;;
5951;SDS011;3001;42.622;23.194;2023-05-29T03:01:44;6.30;;;5.70;;
5951;SDS011;3001;42.622;23.194;2023-05-29T03:04:10;7.50;;;6.43;;
5951;SDS011;3001;42.622;23.194;2023-05-29T03:06:37;5.20;;;4.90;;
5951;SDS011;3001;42.622;23.194;2023-05-29T03:09:04;5.57;;;5.07;;
5951;SDS011;3001;42.622;23.194;2023-05-29T03:11:32;5.83;;;5.33;;
5951;SDS011;3001;42.622;23.194;2023-05-29T03:14:01;5.27;;;4.87;;
5951;SDS011;3001;42.622;23.194;2023-05-29T03:16:27;5.37;;;5.03;;
5951;SDS011;3001;42.622;23.194;2023-05-29T03:18:54;5.30;;;4.80;;
5951;SDS011;3001;42.622;23.194;2023-05-29T03:21:21;5.90;;;5.40;;
5951;SDS011;3001;42.622;23.194;2023-05-29T03:23:48;5.73;;;5.23;;
5951;SDS011;3001;42.622;23.194;2023-05-29T03:26:15;5.23;;;4.93;;
5951;SDS011;3001;42.622;23.194;2023-05-29T03:28:43;5.87;;;5.50;;
5951;SDS011;3001;42.622;23.194;2023-05-29T03:31:10;6.07;;;5.67;;
5951;SDS011;3001;42.622;23.194;2023-05-29T03:33:36;5.93;;;5.37;;
5951;SDS011;3001;42.622;23.194;2023-05-29T03:36:03;5.80;;;5.27;;
5951;SDS011;3001;42.622;23.194;2023-05-29T03:38:32;6.47;;;5.87;;
5951;SDS011;3001;42.622;23.194;2023-05-29T03:40:59;7.67;;;5.97;;
5951;SDS011;3001;42.622;23.194;2023-05-29T03:43:26;5.67;;;5.27;;
5951;SDS011;3001;42.622;23.194;2023-05-29T03:45:54;5.83;;;5.23;;
5951;SDS011;3001;42.622;23.194;2023-05-29T03:48:20;7.87;;;6.87;;
5951;SDS011;3001;42.622;23.194;2023-05-29T03:50:47;6.40;;;5.90;;
5951;SDS011;3001;42.622;23.194;2023-05-29T03:53:15;5.80;;;5.37;;
5951;SDS011;3001;42.622;23.194;2023-05-29T03:55:41;6.40;;;5.97;;
5951;SDS011;3001;42.622;23.194;2023-05-29T03:58:08;6.00;;;5.50;;
5951;SDS011;3001;42.622;23.194;2023-05-29T04:00:37;6.23;;;5.20;;
5951;SDS011;3001;42.622;23.194;2023-05-29T04:03:05;7.90;;;5.20;;
5951;SDS011;3001;42.622;23.194;2023-05-29T04:05:32;5.60;;;5.20;;
5951;SDS011;3001;42.622;23.194;2023-05-29T04:07:59;6.00;;;5.60;;
5951;SDS011;3001;42.622;23.194;2023-05-29T04:10:26;5.07;;;4.57;;
5951;SDS011;3001;42.622;23.194;2023-05-29T04:12:52;9.83;;;4.43;;
5951;SDS011;3001;42.622;23.194;2023-05-29T04:15:20;5.07;;;4.67;;
5951;SDS011;3001;42.622;23.194;2023-05-29T04:17:47;5.00;;;4.60;;
5951;SDS011;3001;42.622;23.194;2023-05-29T04:20:15;5.33;;;4.87;;
5951;SDS011;3001;42.622;23.194;2023-05-29T04:22:42;5.67;;;5.10;;
5951;SDS011;3001;42.622;23.194;2023-05-29T04:25:09;6.77;;;5.27;;
5951;SDS011;3001;42.622;23.194;2023-05-29T04:27:35;4.87;;;4.57;;
5951;SDS011;3001;42.622;23.194;2023-05-29T04:30:02;5.40;;;5.00;;
5951;SDS011;3001;42.622;23.194;2023-05-29T04:32:30;5.20;;;4.70;;
5951;SDS011;3001;42.622;23.194;2023-05-29T04:34:58;5.40;;;4.93;;
5951;SDS011;3001;42.622;23.194;2023-05-29T04:37:29;5.30;;;5.00;;
5951;SDS011;3001;42.622;23.194;2023-05-29T04:40:02;5.77;;;5.07;;
5951;SDS011;3001;42.622;23.194;2023-05-29T04:42:33;4.97;;;4.77;;
5951;SDS011;3001;42.622;23.194;2023-05-29T04:45:00;5.10;;;4.80;;
5951;SDS011;3001;42.622;23.194;2023-05-29T04:47:29;5.17;;;4.77;;
5951;SDS011;3001;42.622;23.194;2023-05-29T04:49:58;5.50;;;4.83;;
5951;SDS011;3001;42.622;23.194;2023-05-29T04:52:25;8.00;;;4.77;;
5951;SDS011;3001;42.622;23.194;2023-05-29T04:54:53;5.40;;;5.00;;
5951;SDS011;3001;42.622;23.194;2023-05-29T04:57:20;6.33;;;5.73;;
5951;SDS011;3001;42.622;23.194;2023-05-29T04:59:47;4.83;;;4.53;;
5951;SDS011;3001;42.622;23.194;2023-05-29T05:02:13;6.10;;;5.57;;
5951;SDS011;3001;42.622;23.194;2023-05-29T05:04:40;5.23;;;4.83;;
5951;SDS011;3001;42.622;23.194;2023-05-29T05:07:07;5.37;;;5.03;;
5951;SDS011;3001;42.622;23.194;2023-05-29T05:09:35;4.93;;;4.63;;
5951;SDS011;3001;42.622;23.194;2023-05-29T05:12:03;5.00;;;4.70;;
5951;SDS011;3001;42.622;23.194;2023-05-29T05:14:30;6.40;;;5.57;;
5951;SDS011;3001;42.622;23.194;2023-05-29T05:16:57;5.17;;;4.87;;
5951;SDS011;3001;42.622;23.194;2023-05-29T05:19:24;7.23;;;5.37;;
5951;SDS011;3001;42.622;23.194;2023-05-29T05:21:50;5.40;;;5.00;;
5951;SDS011;3001;42.622;23.194;2023-05-29T05:24:17;5.03;;;4.73;;
5951;SDS011;3001;42.622;23.194;2023-05-29T05:26:44;6.10;;;5.70;;
5951;SDS011;3001;42.622;23.194;2023-05-29T05:29:12;6.33;;;5.87;;
5951;SDS011;3001;42.622;23.194;2023-05-29T05:31:38;6.43;;;5.93;;
5951;SDS011;3001;42.622;23.194;2023-05-29T05:34:05;6.03;;;5.57;;
5951;SDS011;3001;42.622;23.194;2023-05-29T05:36:32;7.07;;;6.47;;
5951;SDS011;3001;42.622;23.194;2023-05-29T05:38:59;6.63;;;6.13;;
5951;SDS011;3001;42.622;23.194;2023-05-29T05:41:25;5.90;;;5.37;;
5951;SDS011;3001;42.622;23.194;2023-05-29T05:43:52;7.10;;;5.80;;
5951;SDS011;3001;42.622;23.194;2023-05-29T05:46:20;6.73;;;6.20;;
5951;SDS011;3001;42.622;23.194;2023-05-29T05:48:47;6.80;;;6.20;;
5951;SDS011;3001;42.622;23.194;2023-05-29T05:51:13;7.43;;;6.80;;
5951;SDS011;3001;42.622;23.194;2023-05-29T05:53:40;7.13;;;5.90;;
5951;SDS011;3001;42.622;23.194;2023-05-29T05:56:07;7.23;;;6.63;;
5951;SDS011;3001;42.622;23.194;2023-05-29T05:58:34;7.37;;;6.73;;
5951;SDS011;3001;42.622;23.194;2023-05-29T06:01:00;7.17;;;6.57;;
5951;SDS011;3001;42.622;23.194;2023-05-29T06:03:28;7.93;;;7.27;;
5951;SDS011;3001;42.622;23.194;2023-05-29T06:05:58;7.47;;;6.77;;
5951;SDS011;3001;42.622;23.194;2023-05-29T06:08:24;8.33;;;7.33;;
5951;SDS011;3001;42.622;23.194;2023-05-29T06:10:51;8.37;;;7.67;;
5951;SDS011;3001;42.622;23.194;2023-05-29T06:13:18;7.37;;;6.77;;
5951;SDS011;3001;42.622;23.194;2023-05-29T06:15:45;7.83;;;7.07;;
5951;SDS011;3001;42.622;23.194;2023-05-29T06:18:12;7.80;;;7.00;;
5951;SDS011;3001;42.622;23.194;2023-05-29T06:20:40;7.90;;;7.10;;
5951;SDS011;3001;42.622;23.194;2023-05-29T06:23:07;7.40;;;6.77;;
5951;SDS011;3001;42.622;23.194;2023-05-29T06:25:33;7.03;;;6.33;;
5951;SDS011;3001;42.622;23.194;2023-05-29T06:28:00;6.87;;;5.97;;
5951;SDS011;3001;42.622;23.194;2023-05-29T06:30:27;6.17;;;5.60;;
5951;SDS011;3001;42.622;23.194;2023-05-29T06:32:54;5.73;;;5.43;;
5951;SDS011;3001;42.622;23.194;2023-05-29T06:35:21;5.93;;;5.37;;
5951;SDS011;3001;42.622;23.194;2023-05-29T06:37:49;6.60;;;5.97;;
5951;SDS011;3001;42.622;23.194;2023-05-29T06:40:16;5.97;;;5.47;;
5951;SDS011;3001;42.622;23.194;2023-05-29T06:42:42;6.77;;;6.07;;
5951;SDS011;3001;42.622;23.194;2023-05-29T06:45:10;6.13;;;5.60;;
5951;SDS011;3001;42.622;23.194;2023-05-29T06:47:38;5.27;;;4.77;;
5951;SDS011;3001;42.622;23.194;2023-05-29T06:50:06;7.93;;;5.03;;
5951;SDS011;3001;42.622;23.194;2023-05-29T06:52:33;5.30;;;4.90;;
5951;SDS011;3001;42.622;23.194;2023-05-29T06:55:01;6.87;;;4.70;;
5951;SDS011;3001;42.622;23.194;2023-05-29T06:57:28;4.60;;;4.30;;
5951;SDS011;3001;42.622;23.194;2023-05-29T06:59:54;5.50;;;4.50;;
5951;SDS011;3001;42.622;23.194;2023-05-29T07:02:21;5.07;;;4.10;;
5951;SDS011;3001;42.622;23.194;2023-05-29T07:04:48;4.70;;;4.37;;
5951;SDS011;3001;42.622;23.194;2023-05-29T07:07:15;4.57;;;4.20;;
5951;SDS011;3001;42.622;23.194;2023-05-29T07:09:41;5.43;;;4.83;;
5951;SDS011;3001;42.622;23.194;2023-05-29T07:12:09;4.57;;;4.17;;
5951;SDS011;3001;42.622;23.194;2023-05-29T07:14:36;4.40;;;4.10;;
5951;SDS011;3001;42.622;23.194;2023-05-29T07:17:03;4.87;;;4.33;;
5951;SDS011;3001;42.622;23.194;2023-05-29T07:19:30;4.30;;;3.90;;
5951;SDS011;3001;42.622;23.194;2023-05-29T07:21:58;6.97;;;4.47;;
5951;SDS011;3001;42.622;23.194;2023-05-29T07:24:25;3.70;;;3.50;;
5951;SDS011;3001;42.622;23.194;2023-05-29T07:26:52;3.50;;;3.20;;
5951;SDS011;3001;42.622;23.194;2023-05-29T07:29:21;3.60;;;3.40;;
5951;SDS011;3001;42.622;23.194;2023-05-29T07:31:48;5.00;;;3.50;;
5951;SDS011;3001;42.622;23.194;2023-05-29T07:34:15;3.83;;;3.20;;
5951;SDS011;3001;42.622;23.194;2023-05-29T07:36:55;2.97;;;2.70;;
5951;SDS011;3001;42.622;23.194;2023-05-29T07:39:23;2.77;;;2.63;;
5951;SDS011;3001;42.622;23.194;2023-05-29T07:41:50;3.00;;;2.80;;
5951;SDS011;3001;42.622;23.194;2023-05-29T07:44:17;3.63;;;3.33;;
5951;SDS011;3001;42.622;23.194;2023-05-29T07:46:46;3.50;;;3.20;;
5951;SDS011;3001;42.622;23.194;2023-05-29T07:49:12;3.17;;;3.07;;
5951;SDS011;3001;42.622;23.194;2023-05-29T07:51:40;3.50;;;3.30;;
5951;SDS011;3001;42.622;23.194;2023-05-29T07:54:07;4.53;;;4.20;;
5951;SDS011;3001;42.622;23.194;2023-05-29T07:56:33;4.30;;;4.10;;
5951;SDS011;3001;42.622;23.194;2023-05-29T07:59:00;3.83;;;3.63;;
5951;SDS011;3001;42.622;23.194;2023-05-29T08:01:28;3.40;;;3.20;;
5951;SDS011;3001;42.622;23.194;2023-05-29T08:03:56;3.67;;;3.37;;
5951;SDS011;3001;42.622;23.194;2023-05-29T08:06:23;4.30;;;3.90;;
5951;SDS011;3001;42.622;23.194;2023-05-29T08:08:49;6.23;;;3.50;;
5951;SDS011;3001;42.622;23.194;2023-05-29T08:11:17;3.30;;;3.07;;
5951;SDS011;3001;42.622;23.194;2023-05-29T08:13:43;3.50;;;3.30;;
5951;SDS011;3001;42.622;23.194;2023-05-29T08:16:10;3.30;;;3.00;;
5951;SDS011;3001;42.622;23.194;2023-05-29T08:18:39;2.90;;;2.80;;
5951;SDS011;3001;42.622;23.194;2023-05-29T08:21:07;3.60;;;3.40;;
5951;SDS011;3001;42.622;23.194;2023-05-29T08:23:34;3.33;;;3.13;;
5951;SDS011;3001;42.622;23.194;2023-05-29T08:26:01;3.43;;;3.23;;
5951;SDS011;3001;42.622;23.194;2023-05-29T08:28:28;3.87;;;3.67;;
5951;SDS011;3001;42.622;23.194;2023-05-29T08:30:55;3.73;;;3.43;;
5951;SDS011;3001;42.622;23.194;2023-05-29T08:33:21;3.87;;;3.50;;
5951;SDS011;3001;42.622;23.194;2023-05-29T08:35:48;3.63;;;3.33;;
5951;SDS011;3001;42.622;23.194;2023-05-29T08:38:16;6.07;;;3.63;;
5951;SDS011;3001;42.622;23.194;2023-05-29T08:40:43;3.50;;;3.27;;
5951;SDS011;3001;42.622;23.194;2023-05-29T08:43:12;3.40;;;3.20;;
5951;SDS011;3001;42.622;23.194;2023-05-29T08:45:42;5.47;;;3.50;;
5951;SDS011;3001;42.622;23.194;2023-05-29T08:48:09;3.23;;;3.03;;
5951;SDS011;3001;42.622;23.194;2023-05-29T08:50:37;4.17;;;3.17;;
5951;SDS011;3001;42.622;23.194;2023-05-29T08:53:09;3.27;;;2.97;;
5951;SDS011;3001;42.622;23.194;2023-05-29T08:55:37;3.53;;;3.33;;
5951;SDS011;3001;42.622;23.194;2023-05-29T08:58:04;5.20;;;3.37;;
5951;SDS011;3001;42.622;23.194;2023-05-29T09:00:31;3.40;;;3.20;;
5951;SDS011;3001;42.622;23.194;2023-05-29T09:02:58;3.73;;;3.47;;
5951;SDS011;3001;42.622;23.194;2023-05-29T09:05:26;4.03;;;3.77;;
5951;SDS011;3001;42.622;23.194;2023-05-29T09:07:52;4.73;;;3.17;;
5951;SDS011;3001;42.622;23.194;2023-05-29T09:10:19;2.93;;;2.73;;
5951;SDS011;3001;42.622;23.194;2023-05-29T09:12:48;3.30;;;3.10;;
5951;SDS011;3001;42.622;23.194;2023-05-29T09:15:19;3.83;;;3.63;;
5951;SDS011;3001;42.622;23.194;2023-05-29T09:17:50;3.37;;;3.17;;
5951;SDS011;3001;42.622;23.194;2023-05-29T09:20:18;4.63;;;4.00;;
5951;SDS011;3001;42.622;23.194;2023-05-29T09:22:55;3.90;;;3.70;;
5951;SDS011;3001;42.622;23.194;2023-05-29T09:25:22;3.17;;;2.97;;
5951;SDS011;3001;42.622;23.194;2023-05-29T09:27:55;3.83;;;3.63;;
5951;SDS011;3001;42.622;23.194;2023-05-29T09:30:30;3.93;;;3.60;;
5951;SDS011;3001;42.622;23.194;2023-05-29T09:32:58;3.33;;;3.13;;
5951;SDS011;3001;42.622;23.194;2023-05-29T09:35:27;3.30;;;3.00;;
5951;SDS011;3001;42.622;23.194;2023-05-29T09:37:58;3.27;;;3.07;;
5951;SDS011;3001;42.622;23.194;2023-05-29T09:40:25;4.13;;;3.93;;
5951;SDS011;3001;42.622;23.194;2023-05-29T09:42:52;3.47;;;3.17;;
5951;SDS011;3001;42.622;23.194;2023-05-29T09:45:21;3.70;;;3.50;;
5951;SDS011;3001;42.622;23.194;2023-05-29T09:47:50;3.73;;;3.43;;
5951;SDS011;3001;42.622;23.194;2023-05-29T09:50:18;3.67;;;3.47;;
5951;SDS011;3001;42.622;23.194;2023-05-29T09:52:46;4.17;;;3.77;;
5951;SDS011;3001;42.622;23.194;2023-05-29T09:55:17;3.57;;;3.40;;
5951;SDS011;3001;42.622;23.194;2023-05-29T09:57:46;3.93;;;3.60;;
5951;SDS011;3001;42.622;23.194;2023-05-29T10:00:13;3.33;;;3.23;;
5951;SDS011;3001;42.622;23.194;2023-05-29T10:02:42;3.47;;;3.30;;
5951;SDS011;3001;42.622;23.194;2023-05-29T10:05:09;3.40;;;3.20;;
5951;SDS011;3001;42.622;23.194;2023-05-29T10:07:37;3.87;;;3.60;;
5951;SDS011;3001;42.622;23.194;2023-05-29T10:10:07;3.70;;;3.40;;
5951;SDS011;3001;42.622;23.194;2023-05-29T10:12:34;3.97;;;3.67;;
5951;SDS011;3001;42.622;23.194;2023-05-29T10:15:06;3.27;;;3.10;;
5951;SDS011;3001;42.622;23.194;2023-05-29T10:17:37;2.83;;;2.73;;
5951;SDS011;3001;42.622;23.194;2023-05-29T10:20:07;3.00;;;2.90;;
5951;SDS011;3001;42.622;23.194;2023-05-29T10:22:39;3.23;;;3.13;;
5951;SDS011;3001;42.622;23.194;2023-05-29T10:25:09;3.50;;;3.40;;
5951;SDS011;3001;42.622;23.194;2023-05-29T10:27:39;2.80;;;2.70;;
5951;SDS011;3001;42.622;23.194;2023-05-29T10:30:06;3.20;;;3.00;;
5951;SDS011;3001;42.622;23.194;2023-05-29T10:32:40;3.47;;;3.13;;
5951;SDS011;3001;42.622;23.194;2023-05-29T10:35:24;3.30;;;3.03;;
5951;SDS011;3001;42.622;23.194;2023-05-29T10:37:59;3.40;;;3.20;;
5951;SDS011;3001;42.622;23.194;2023-05-29T10:40:35;3.77;;;3.57;;
5951;SDS011;3001;42.622;23.194;2023-05-29T10:43:02;4.07;;;2.70;;
5951;SDS011;3001;42.622;23.194;2023-05-29T10:45:48;3.47;;;3.27;;
5951;SDS011;3001;42.622;23.194;2023-05-29T10:51:07;3.43;;;3.23;;
5951;SDS011;3001;42.622;23.194;2023-05-29T10:53:35;3.77;;;3.57;;
5951;SDS011;3001;42.622;23.194;2023-05-29T10:56:07;3.53;;;3.27;;
5951;SDS011;3001;42.622;23.194;2023-05-29T10:58:37;3.43;;;3.23;;
5951;SDS011;3001;42.622;23.194;2023-05-29T11:01:05;4.10;;;3.80;;
5951;SDS011;3001;42.622;23.194;2023-05-29T11:03:34;3.93;;;3.63;;
5951;SDS011;3001;42.622;23.194;2023-05-29T11:06:02;3.47;;;3.20;;
5951;SDS011;3001;42.622;23.194;2023-05-29T11:08:35;3.80;;;3.60;;
5951;SDS011;3001;42.622;23.194;2023-05-29T11:11:11;4.07;;;3.87;;
5951;SDS011;3001;42.622;23.194;2023-05-29T11:13:38;4.30;;;3.90;;
5951;SDS011;3001;42.622;23.194;2023-05-29T11:16:12;3.90;;;3.60;;
5951;SDS011;3001;42.622;23.194;2023-05-29T11:18:40;3.47;;;3.27;;
5951;SDS011;3001;42.622;23.194;2023-05-29T11:24:02;4.33;;;3.93;;
5951;SDS011;3001;42.622;23.194;2023-05-29T11:26:30;3.73;;;3.40;;
5951;SDS011;3001;42.622;23.194;2023-05-29T11:28:58;4.77;;;4.50;;
5951;SDS011;3001;42.622;23.194;2023-05-29T11:31:25;4.50;;;4.27;;
5951;SDS011;3001;42.622;23.194;2023-05-29T11:33:58;4.40;;;4.10;;
5951;SDS011;3001;42.622;23.194;2023-05-29T11:36:27;4.93;;;4.73;;
5951;SDS011;3001;42.622;23.194;2023-05-29T11:38:55;4.23;;;4.03;;
5951;SDS011;3001;42.622;23.194;2023-05-29T11:41:23;4.10;;;3.80;;
5951;SDS011;3001;42.622;23.194;2023-05-29T11:43:57;6.00;;;3.60;;
5951;SDS011;3001;42.622;23.194;2023-05-29T11:46:24;3.20;;;3.00;;
5951;SDS011;3001;42.622;23.194;2023-05-29T11:48:53;5.57;;;3.17;;
5951;SDS011;3001;42.622;23.194;2023-05-29T11:51:20;3.00;;;2.90;;
5951;SDS011;3001;42.622;23.194;2023-05-29T11:53:46;2.90;;;2.80;;
5951;SDS011;3001;42.622;23.194;2023-05-29T11:56:14;3.33;;;3.13;;
5951;SDS011;3001;42.622;23.194;2023-05-29T11:58:42;3.40;;;3.20;;
5951;SDS011;3001;42.622;23.194;2023-05-29T12:01:09;3.87;;;3.57;;
5951;SDS011;3001;42.622;23.194;2023-05-29T12:03:39;8.10;;;5.80;;
5951;SDS011;3001;42.622;23.194;2023-05-29T12:06:07;8.23;;;7.43;;
5951;SDS011;3001;42.622;23.194;2023-05-29T12:08:35;5.10;;;4.77;;
5951;SDS011;3001;42.622;23.194;2023-05-29T12:11:03;3.23;;;3.13;;
5951;SDS011;3001;42.622;23.194;2023-05-29T12:13:30;4.00;;;3.80;;
5951;SDS011;3001;42.622;23.194;2023-05-29T12:15:59;4.07;;;3.87;;
5951;SDS011;3001;42.622;23.194;2023-05-29T12:18:29;3.47;;;3.37;;
5951;SDS011;3001;42.622;23.194;2023-05-29T12:20:59;4.00;;;3.70;;
5951;SDS011;3001;42.622;23.194;2023-05-29T12:23:27;3.13;;;3.03;;
5951;SDS011;3001;42.622;23.194;2023-05-29T12:25:54;4.20;;;3.73;;
5951;SDS011;3001;42.622;23.194;2023-05-29T12:28:21;3.77;;;3.47;;
5951;SDS011;3001;42.622;23.194;2023-05-29T12:30:48;4.27;;;3.90;;
5951;SDS011;3001;42.622;23.194;2023-05-29T12:33:27;4.43;;;4.13;;
5951;SDS011;3001;42.622;23.194;2023-05-29T12:36:00;6.63;;;6.10;;
5951;SDS011;3001;42.622;23.194;2023-05-29T12:38:27;12.90;;;9.20;;
5951;SDS011;3001;42.622;23.194;2023-05-29T12:40:55;10.13;;;9.23;;
5951;SDS011;3001;42.622;23.194;2023-05-29T12:43:22;10.33;;;9.43;;
5951;SDS011;3001;42.622;23.194;2023-05-29T12:45:53;6.77;;;6.17;;
5951;SDS011;3001;42.622;23.194;2023-05-29T12:48:25;7.77;;;7.17;;
5951;SDS011;3001;42.622;23.194;2023-05-29T12:50:53;6.60;;;6.00;;
5951;SDS011;3001;42.622;23.194;2023-05-29T12:53:21;5.20;;;4.90;;
5951;SDS011;3001;42.622;23.194;2023-05-29T12:55:47;6.93;;;5.13;;
5951;SDS011;3001;42.622;23.194;2023-05-29T12:58:15;5.53;;;5.07;;
5951;SDS011;3001;42.622;23.194;2023-05-29T13:00:42;4.43;;;4.00;;
5951;SDS011;3001;42.622;23.194;2023-05-29T13:03:10;3.97;;;3.77;;
5951;SDS011;3001;42.622;23.194;2023-05-29T13:05:38;3.63;;;3.47;;
5951;SDS011;3001;42.622;23.194;2023-05-29T13:08:06;4.80;;;4.40;;
5951;SDS011;3001;42.622;23.194;2023-05-29T13:10:33;7.10;;;4.67;;
5951;SDS011;3001;42.622;23.194;2023-05-29T13:13:00;5.03;;;4.67;;
5951;SDS011;3001;42.622;23.194;2023-05-29T13:15:27;5.07;;;4.67;;
5951;SDS011;3001;42.622;23.194;2023-05-29T13:17:54;4.50;;;4.27;;
5951;SDS011;3001;42.622;23.194;2023-05-29T13:20:20;4.73;;;4.53;;
5951;SDS011;3001;42.622;23.194;2023-05-29T13:22:49;5.03;;;4.60;;
5951;SDS011;3001;42.622;23.194;2023-05-29T13:25:16;5.20;;;4.90;;
5951;SDS011;3001;42.622;23.194;2023-05-29T13:27:45;5.37;;;4.87;;
5951;SDS011;3001;42.622;23.194;2023-05-29T13:30:13;6.27;;;4.87;;
5951;SDS011;3001;42.622;23.194;2023-05-29T13:32:41;8.30;;;5.77;;
5951;SDS011;3001;42.622;23.194;2023-05-29T13:35:08;6.10;;;5.70;;
5951;SDS011;3001;42.622;23.194;2023-05-29T13:37:35;5.77;;;5.37;;
5951;SDS011;3001;42.622;23.194;2023-05-29T13:40:04;5.37;;;5.00;;
5951;SDS011;3001;42.622;23.194;2023-05-29T13:42:31;4.87;;;4.47;;
5951;SDS011;3001;42.622;23.194;2023-05-29T13:44:58;5.07;;;4.77;;
5951;SDS011;3001;42.622;23.194;2023-05-29T13:47:25;5.17;;;4.77;;
5951;SDS011;3001;42.622;23.194;2023-05-29T13:49:53;5.27;;;4.97;;
5951;SDS011;3001;42.622;23.194;2023-05-29T13:52:20;6.00;;;5.47;;
5951;SDS011;3001;42.622;23.194;2023-05-29T13:54:47;6.33;;;5.57;;
5951;SDS011;3001;42.622;23.194;2023-05-29T13:57:15;5.40;;;4.87;;
5951;SDS011;3001;42.622;23.194;2023-05-29T13:59:41;5.30;;;4.90;;
5951;SDS011;3001;42.622;23.194;2023-05-29T14:02:08;5.70;;;5.20;;
5951;SDS011;3001;42.622;23.194;2023-05-29T14:04:35;4.87;;;4.60;;
5951;SDS011;3001;42.622;23.194;2023-05-29T14:07:03;5.53;;;4.50;;
5951;SDS011;3001;42.622;23.194;2023-05-29T14:09:30;4.63;;;4.17;;
5951;SDS011;3001;42.622;23.194;2023-05-29T14:11:58;4.90;;;4.43;;
5951;SDS011;3001;42.622;23.194;2023-05-29T14:14:26;4.57;;;4.17;;
5951;SDS011;3001;42.622;23.194;2023-05-29T14:16:53;4.40;;;4.10;;
5951;SDS011;3001;42.622;23.194;2023-05-29T14:19:20;4.33;;;4.13;;
5951;SDS011;3001;42.622;23.194;2023-05-29T14:21:47;4.70;;;4.40;;
5951;SDS011;3001;42.622;23.194;2023-05-29T14:24:14;5.33;;;4.80;;
5951;SDS011;3001;42.622;23.194;2023-05-29T14:26:42;4.60;;;4.40;;
5951;SDS011;3001;42.622;23.194;2023-05-29T14:29:12;4.90;;;4.60;;
5951;SDS011;3001;42.622;23.194;2023-05-29T14:31:40;4.70;;;4.40;;
5951;SDS011;3001;42.622;23.194;2023-05-29T14:34:07;4.60;;;4.23;;
5951;SDS011;3001;42.622;23.194;2023-05-29T14:36:34;4.20;;;4.00;;
5951;SDS011;3001;42.622;23.194;2023-05-29T14:39:02;3.80;;;3.60;;
5951;SDS011;3001;42.622;23.194;2023-05-29T14:41:29;4.53;;;4.17;;
5951;SDS011;3001;42.622;23.194;2023-05-29T14:43:55;3.70;;;3.00;;
5951;SDS011;3001;42.622;23.194;2023-05-29T14:46:23;2.23;;;1.90;;
5951;SDS011;3001;42.622;23.194;2023-05-29T14:48:52;2.43;;;2.07;;
5951;SDS011;3001;42.622;23.194;2023-05-29T14:51:19;2.13;;;2.03;;
5951;SDS011;3001;42.622;23.194;2023-05-29T14:53:46;2.23;;;2.13;;
5951;SDS011;3001;42.622;23.194;2023-05-29T14:56:13;3.23;;;2.50;;
5951;SDS011;3001;42.622;23.194;2023-05-29T14:58:39;2.63;;;2.53;;
5951;SDS011;3001;42.622;23.194;2023-05-29T15:01:07;2.23;;;2.00;;
5951;SDS011;3001;42.622;23.194;2023-05-29T15:03:34;1.90;;;1.80;;
5951;SDS011;3001;42.622;23.194;2023-05-29T15:06:02;2.17;;;2.07;;
5951;SDS011;3001;42.622;23.194;2023-05-29T15:08:31;1.87;;;1.77;;
5951;SDS011;3001;42.622;23.194;2023-05-29T15:10:59;2.20;;;2.10;;
5951;SDS011;3001;42.622;23.194;2023-05-29T15:13:28;3.93;;;2.20;;